Time;durP1;ratioP1;P1;durP2;ratioP2;P2;SDS_P1;SDS_P2;PMS_P1;PMS_P2;Temp;Humidity;BMP_temperature;BMP_pressure;BME280_temperature;BME280_humidity;BME280_pressure;Samples;Min_cycle;Max_cycle;Signal;HPM_P1;HPM_P2
2021/03/13 00:02:07;;;;;;;2.90;0.80;;;;;;;4.10;100.00;97150.39;3748041;78;43972;-29
2021/03/13 00:07:13;;;;;;;2.13;0.90;;;;;;;4.17;100.00;97160.80;3707257;78;43983;-20
2021/03/13 00:12:19;;;;;;;1.33;0.80;;;;;;;4.18;100.00;97158.97;3719784;78;44815;-20
2021/03/13 00:17:25;;;;;;;0.80;0.70;;;;;;;4.20;100.00;97146.33;3716051;79;43760;-20
2021/03/13 00:22:31;;;;;;;0.80;0.73;;;;;;;4.23;100.00;97152.70;3701057;80;44062;-20
2021/03/13 00:27:46;;;;;;;0.90;0.70;;;;;;;4.23;100.00;97157.52;3700813;80;44506;-20
2021/03/13 00:32:56;;;;;;;1.33;0.70;;;;;;;4.19;100.00;97148.65;3700730;79;43310;-20
2021/03/13 00:38:03;;;;;;;1.33;0.80;;;;;;;4.16;100.00;97147.13;3701754;78;43320;-20
2021/03/13 00:43:11;;;;;;;1.23;0.80;;;;;;;4.09;100.00;97144.71;3683909;79;43399;-19
2021/03/13 00:48:17;;;;;;;0.77;0.77;;;;;;;4.04;100.00;97143.02;3700646;80;44087;-20
2021/03/13 00:53:24;;;;;;;2.10;0.90;;;;;;;4.01;100.00;97146.32;3634006;80;44019;-20
2021/03/13 00:58:30;;;;;;;2.00;0.77;;;;;;;3.97;100.00;97144.94;3700889;80;43686;-19
2021/03/13 01:03:38;;;;;;;1.03;0.70;;;;;;;3.91;100.00;97136.23;3634283;81;26385;-18
2021/03/13 01:08:44;;;;;;;0.80;0.80;;;;;;;3.92;100.00;97139.24;3697153;78;44008;-18
2021/03/13 01:14:01;;;;;;;1.43;0.80;;;;;;;3.91;100.00;97136.71;3642976;80;26397;-18
2021/03/13 01:19:09;;;;;;;1.00;0.70;;;;;;;3.94;100.00;97133.24;3660229;80;26428;-18
2021/03/13 01:24:16;;;;;;;3.73;0.90;;;;;;;3.94;100.00;97137.75;3656021;81;44522;-18
2021/03/13 01:29:23;;;;;;;1.00;0.77;;;;;;;4.00;100.00;97125.98;3672902;80;43315;-19
2021/03/13 01:34:32;;;;;;;1.83;1.00;;;;;;;4.00;100.00;97131.32;3656410;81;26381;-19
2021/03/13 01:39:42;;;;;;;1.50;1.00;;;;;;;4.04;100.00;97125.19;3648791;80;26372;-18
2021/03/13 01:44:50;;;;;;;2.77;0.90;;;;;;;4.05;100.00;97115.38;3598118;79;26965;-18
2021/03/13 01:49:58;;;;;;;3.00;0.90;;;;;;;4.08;100.00;97117.72;3650471;80;43375;-18
2021/03/13 01:55:08;;;;;;;1.20;1.00;;;;;;;4.09;100.00;97112.73;3656268;80;26373;-18
2021/03/13 02:00:19;;;;;;;0.87;0.80;;;;;;;4.14;100.00;97101.12;3672752;80;43341;-20
2021/03/13 02:05:29;;;;;;;0.63;0.63;;;;;;;4.15;100.00;97107.63;3659254;80;26775;-18
2021/03/13 02:10:40;;;;;;;2.20;1.00;;;;;;;4.25;100.00;97094.23;3676066;80;44060;-19
2021/03/13 02:15:54;;;;;;;1.43;0.90;;;;;;;4.26;100.00;97075.06;3617563;79;43678;-19
2021/03/13 02:21:13;;;;;;;0.93;0.80;;;;;;;4.26;100.00;97067.91;3665121;78;43496;-18
2021/03/13 02:26:29;;;;;;;0.83;0.80;;;;;;;4.31;100.00;97076.27;3533694;84;27015;-20
2021/03/13 02:31:42;;;;;;;0.70;0.70;;;;;;;4.29;100.00;97074.25;3674851;79;26396;-18
2021/03/13 02:36:48;;;;;;;1.67;0.73;;;;;;;4.30;100.00;97057.77;3664834;81;44017;-18
2021/03/13 02:41:57;;;;;;;1.27;0.80;;;;;;;4.27;100.00;97057.59;3644934;80;44004;-17
2021/03/13 02:47:06;;;;;;;2.50;1.03;;;;;;;4.27;100.00;97049.59;3659804;79;43225;-17
2021/03/13 02:52:16;;;;;;;1.50;1.10;;;;;;;4.23;100.00;97044.73;3671175;80;27069;-19
2021/03/13 02:57:25;;;;;;;1.40;1.17;;;;;;;4.19;100.00;97038.85;3537200;83;42848;-19
2021/03/13 03:02:31;;;;;;;1.80;1.33;;;;;;;4.17;100.00;97028.86;3666286;80;44015;-19
2021/03/13 03:07:39;;;;;;;2.67;1.20;;;;;;;4.15;100.00;97029.52;3661565;80;43680;-19
2021/03/13 03:12:49;;;;;;;2.80;1.50;;;;;;;4.15;100.00;97023.67;3623400;80;44117;-19
2021/03/13 03:17:56;;;;;;;2.33;1.70;;;;;;;4.28;100.00;97020.62;3622861;79;43960;-18
2021/03/13 03:23:06;;;;;;;3.63;1.50;;;;;;;4.32;100.00;97016.62;3628192;80;44574;-19
2021/03/13 03:28:15;;;;;;;2.20;1.70;;;;;;;4.26;100.00;97009.27;3644451;80;44007;-18
2021/03/13 03:33:24;;;;;;;3.33;2.07;;;;;;;4.25;100.00;96999.59;3700588;80;27529;-19
2021/03/13 03:38:32;;;;;;;4.07;2.00;;;;;;;4.23;100.00;96995.42;3709798;79;26316;-19
2021/03/13 03:43:43;;;;;;;5.67;1.90;;;;;;;4.26;100.00;96987.09;3634210;80;43336;-18
2021/03/13 03:48:53;;;;;;;2.83;1.80;;;;;;;4.17;100.00;96984.89;3699816;78;26809;-18
2021/03/13 03:54:03;;;;;;;2.53;2.33;;;;;;;4.18;100.00;96977.20;3693782;80;26371;-17
2021/03/13 03:59:13;;;;;;;2.93;2.13;;;;;;;4.19;100.00;96978.88;3700860;80;43015;-18
2021/03/13 04:04:21;;;;;;;3.43;2.10;;;;;;;4.18;100.00;96971.88;3634229;80;43710;-17
2021/03/13 04:09:28;;;;;;;3.70;2.30;;;;;;;4.18;100.00;96966.54;3710048;80;43325;-17
2021/03/13 04:14:35;;;;;;;3.77;2.10;;;;;;;4.19;100.00;96970.88;3632154;81;44183;-19
2021/03/13 04:19:42;;;;;;;3.27;2.30;;;;;;;4.27;100.00;96957.63;3704881;79;43480;-19
2021/03/13 04:24:50;;;;;;;3.90;2.03;;;;;;;4.28;100.00;96955.30;3742570;79;44034;-33
2021/03/13 04:29:56;;;;;;;3.63;2.30;;;;;;;4.32;100.00;96925.98;3743348;79;43460;-18
2021/03/13 04:35:02;;;;;;;2.47;1.80;;;;;;;4.21;100.00;96931.58;3742672;79;43062;-19
2021/03/13 04:40:12;;;;;;;2.90;1.90;;;;;;;4.18;100.00;96925.73;3682032;80;44103;-18
2021/03/13 04:45:19;;;;;;;1.93;1.60;;;;;;;4.15;100.00;96916.23;3681369;80;44035;-19
2021/03/13 04:50:25;;;;;;;2.20;1.70;;;;;;;4.13;100.00;96908.38;3727426;79;43686;-18
2021/03/13 04:55:31;;;;;;;3.60;1.90;;;;;;;4.18;100.00;96889.75;3731415;77;44235;-18
2021/03/13 05:00:37;;;;;;;2.57;1.70;;;;;;;4.19;100.00;96888.26;3732834;78;43120;-18
2021/03/13 05:05:43;;;;;;;2.20;1.50;;;;;;;4.23;100.00;96876.80;3735418;78;43693;-19
2021/03/13 05:10:48;;;;;;;1.60;1.30;;;;;;;4.28;100.00;96883.33;3710790;79;43775;-18
2021/03/13 05:15:54;;;;;;;3.10;1.50;;;;;;;4.40;100.00;96871.05;3715608;79;43303;-18
2021/03/13 05:21:01;;;;;;;2.30;1.30;;;;;;;4.49;100.00;96862.07;3715501;79;43402;-19
2021/03/13 05:26:07;;;;;;;2.97;1.60;;;;;;;4.49;100.00;96855.41;3704738;79;43006;-19
2021/03/13 05:31:13;;;;;;;2.27;1.43;;;;;;;4.56;100.00;96863.08;3700457;79;43278;-19
2021/03/13 05:36:21;;;;;;;2.13;1.50;;;;;;;4.65;100.00;96843.95;3702407;79;44074;-19
2021/03/13 05:41:27;;;;;;;2.27;1.30;;;;;;;4.74;100.00;96840.30;3702579;79;43325;-19
2021/03/13 05:46:36;;;;;;;2.13;1.20;;;;;;;4.84;100.00;96820.14;3702307;79;43677;-19
2021/03/13 05:51:44;;;;;;;1.53;1.13;;;;;;;4.97;100.00;96827.66;3702943;79;44001;-19
2021/03/13 05:56:51;;;;;;;1.60;1.00;;;;;;;5.02;100.00;96818.66;3703261;79;44040;-19
2021/03/13 06:01:57;;;;;;;1.17;0.90;;;;;;;5.06;100.00;96805.30;3703477;79;44074;-18
2021/03/13 06:07:04;;;;;;;1.43;0.83;;;;;;;5.10;100.00;96800.48;3701670;79;43677;-17
2021/03/13 06:12:12;;;;;;;1.67;1.07;;;;;;;5.15;100.00;96793.31;3704067;78;43434;-18
2021/03/13 06:17:18;;;;;;;0.77;0.67;;;;;;;5.20;100.00;96791.80;3700584;79;43944;-17
2021/03/13 06:22:42;;;;;;;0.60;0.60;;;;;;;5.25;100.00;96784.11;3699055;79;43364;-17
2021/03/13 06:27:50;;;;;;;0.60;0.60;;;;;;;5.30;100.00;96781.45;3700548;79;43689;-17
2021/03/13 06:32:57;;;;;;;0.60;0.60;;;;;;;5.33;100.00;96773.93;3698698;79;43674;-16
2021/03/13 06:38:07;;;;;;;0.70;0.60;;;;;;;5.34;100.00;96769.44;3700678;79;73358;-17
2021/03/13 06:43:28;;;;;;;0.40;0.40;;;;;;;5.32;100.00;96756.23;3699365;78;44046;-17
2021/03/13 06:48:37;;;;;;;0.50;0.50;;;;;;;5.37;100.00;96749.91;3703178;79;43344;-17
2021/03/13 06:53:44;;;;;;;0.80;0.50;;;;;;;5.45;100.00;96741.05;3703432;79;44011;-18
2021/03/13 06:58:49;;;;;;;0.50;0.50;;;;;;;5.43;100.00;96746.20;3704537;78;43380;-18
2021/03/13 07:03:56;;;;;;;0.50;0.50;;;;;;;5.45;100.00;96747.72;3708421;79;43435;-16
2021/03/13 07:09:04;;;;;;;0.43;0.40;;;;;;;5.50;100.00;96734.67;3709568;79;44437;-18
2021/03/13 07:14:10;;;;;;;0.60;0.50;;;;;;;5.58;100.00;96716.45;3659572;79;43721;-18
2021/03/13 07:19:18;;;;;;;0.50;0.50;;;;;;;5.64;100.00;96736.30;3662089;81;44082;-18
2021/03/13 07:24:25;;;;;;;0.40;0.40;;;;;;;5.72;100.00;96706.88;3614543;81;43097;-19
2021/03/13 07:29:32;;;;;;;0.63;0.47;;;;;;;5.79;100.00;96697.19;3741390;79;44083;-18
2021/03/13 07:34:40;;;;;;;1.60;1.03;;;;;;;5.87;100.00;96688.30;3747287;79;43021;-18
2021/03/13 07:39:50;;;;;;;0.47;0.40;;;;;;;6.04;100.00;96689.57;3726224;79;44071;-18
2021/03/13 07:44:58;;;;;;;0.62;0.40;;;;;;;6.13;100.00;96680.00;3725255;79;43713;-18
2021/03/13 07:50:07;;;;;;;0.50;0.40;;;;;;;6.21;100.00;96672.44;3728052;79;44012;-18
2021/03/13 07:55:15;;;;;;;0.60;0.60;;;;;;;6.31;100.00;96658.81;3724265;79;43509;-18
2021/03/13 08:00:44;;;;;;;0.60;0.50;;;;;;;6.38;100.00;96664.29;3726360;79;44030;-17
2021/03/13 08:06:12;;;;;;;0.80;0.80;;;;;;;6.48;100.00;96660.87;3729629;79;73276;-20
2021/03/13 08:11:19;;;;;;;0.77;0.70;;;;;;;6.54;100.00;96648.62;3726026;79;44453;-18
2021/03/13 08:16:37;;;;;;;1.47;0.80;;;;;;;6.63;100.00;96655.59;3728363;79;44072;-19
2021/03/13 08:21:45;;;;;;;1.13;0.70;;;;;;;6.66;100.00;96646.36;3728393;79;43912;-18
2021/03/13 08:27:09;;;;;;;1.80;0.80;;;;;;;6.75;100.00;96632.73;3698736;78;43392;-18
2021/03/13 08:32:15;;;;;;;0.87;0.70;;;;;;;6.84;100.00;96625.96;3694453;80;44055;-19
2021/03/13 08:37:23;;;;;;;2.67;0.80;;;;;;;6.93;100.00;96604.78;3625704;81;43218;-19
2021/03/13 08:42:35;;;;;;;1.98;0.90;;;;;;;7.01;100.00;96590.48;3705437;78;44095;-19
2021/03/13 08:47:51;;;;;;;1.45;0.95;;;;;;;7.09;100.00;96605.11;3628472;80;43474;-19
2021/03/13 08:52:56;;;;;;;1.22;0.90;;;;;;;7.16;100.00;96603.38;3698401;79;44002;-18
2021/03/13 08:58:02;;;;;;;1.67;0.98;;;;;;;7.23;100.00;96591.42;3694195;79;42937;-19
2021/03/13 09:03:08;;;;;;;1.90;0.80;;;;;;;7.22;100.00;96560.30;3705203;79;44046;-18
2021/03/13 09:08:21;;;;;;;1.77;1.00;;;;;;;7.32;100.00;96556.83;3707977;80;44032;-19
2021/03/13 09:13:27;;;;;;;1.57;0.87;;;;;;;7.35;100.00;96540.87;3692656;78;43978;-18
2021/03/13 09:18:33;;;;;;;1.27;0.97;;;;;;;7.36;100.00;96527.81;3683746;78;43453;-18
2021/03/13 09:23:40;;;;;;;1.90;1.00;;;;;;;7.37;100.00;96517.42;3716451;78;43677;-18
2021/03/13 09:28:49;;;;;;;2.27;0.70;;;;;;;7.45;100.00;96519.16;3740780;79;43682;-16
2021/03/13 09:34:13;;;;;;;1.47;1.00;;;;;;;7.59;100.00;96500.03;3731028;79;44463;-17
2021/03/13 09:39:27;;;;;;;1.07;0.80;;;;;;;7.66;100.00;96491.54;3728804;78;43098;-18
2021/03/13 09:44:34;;;;;;;1.20;0.90;;;;;;;7.73;100.00;96480.89;3723142;79;73224;-18
2021/03/13 09:49:40;;;;;;;2.35;1.00;;;;;;;7.67;100.00;96467.25;3727001;79;73250;-18
2021/03/13 09:54:46;;;;;;;3.05;0.80;;;;;;;7.76;100.00;96441.65;3724512;79;43369;-17
2021/03/13 09:59:52;;;;;;;1.72;0.70;;;;;;;7.86;100.00;96464.94;3727278;79;44449;-18
2021/03/13 10:04:58;;;;;;;1.27;0.80;;;;;;;7.97;100.00;96454.22;3725947;79;42881;-18
2021/03/13 10:10:09;;;;;;;0.98;0.72;;;;;;;8.12;100.00;96428.65;3726529;79;43483;-19
2021/03/13 10:15:24;;;;;;;2.67;0.80;;;;;;;8.20;99.35;96420.45;3722818;79;43517;-19
2021/03/13 10:20:32;;;;;;;1.20;0.70;;;;;;;8.25;98.28;96408.63;3725383;79;43678;-19
2021/03/13 10:25:40;;;;;;;2.02;0.70;;;;;;;8.40;98.34;96414.41;3724290;79;43428;-19
2021/03/13 10:30:47;;;;;;;1.07;0.80;;;;;;;8.52;98.16;96409.33;3726223;79;44596;-19
2021/03/13 10:35:54;;;;;;;2.02;0.80;;;;;;;8.60;94.49;96394.39;3731433;79;43440;-19
2021/03/13 10:41:08;;;;;;;2.00;0.60;;;;;;;8.62;92.20;96390.50;3728541;79;44489;-29
2021/03/13 10:46:17;;;;;;;0.80;0.50;;;;;;;8.78;91.59;96393.36;3720380;79;44005;-18
2021/03/13 10:51:25;;;;;;;1.12;0.70;;;;;;;8.84;90.15;96385.52;3724373;79;44004;-18
2021/03/13 10:56:41;;;;;;;0.95;0.60;;;;;;;8.77;91.52;96401.09;3725272;79;43702;-19
2021/03/13 11:01:50;;;;;;;1.42;0.90;;;;;;;8.81;90.16;96370.64;3731541;79;43689;-19
2021/03/13 11:06:59;;;;;;;1.20;0.70;;;;;;;8.76;91.23;96367.75;3719335;79;43414;-19
2021/03/13 11:12:07;;;;;;;1.45;0.60;;;;;;;8.83;92.61;96380.67;3722232;79;44004;-19
2021/03/13 11:17:13;;;;;;;1.50;1.10;;;;;;;8.64;91.20;96370.16;3727654;79;73275;-18
2021/03/13 11:22:19;;;;;;;0.53;0.53;;;;;;;8.79;92.59;96365.98;3721042;79;44033;-18
2021/03/13 11:27:26;;;;;;;1.42;0.70;;;;;;;8.81;91.64;96366.62;3719345;79;43996;-18
2021/03/13 11:32:31;;;;;;;0.85;0.60;;;;;;;8.87;90.26;96387.81;3722679;79;43404;-18
2021/03/13 11:37:39;;;;;;;1.10;0.80;;;;;;;8.79;93.70;96356.59;3724348;79;43801;-18
2021/03/13 11:42:45;;;;;;;0.93;0.60;;;;;;;8.72;92.15;96352.53;3721495;79;44082;-18
2021/03/13 11:47:55;;;;;;;2.55;0.60;;;;;;;8.98;93.56;96356.88;3721989;79;44043;-18
2021/03/13 11:53:01;;;;;;;1.82;0.90;;;;;;;8.94;92.65;96347.88;3724361;79;43319;-18
2021/03/13 11:58:07;;;;;;;0.68;0.62;;;;;;;9.00;94.59;96330.62;3719304;79;44628;-19
2021/03/13 12:03:16;;;;;;;1.90;1.00;;;;;;;9.12;93.81;96318.25;3714650;79;42553;-19
2021/03/13 12:08:24;;;;;;;1.30;0.70;;;;;;;9.27;92.64;96319.94;3716206;79;43710;-19
2021/03/13 12:13:30;;;;;;;1.70;0.80;;;;;;;9.29;91.45;96320.03;3719619;79;44629;-19
2021/03/13 12:18:36;;;;;;;1.87;0.70;;;;;;;9.16;90.03;96326.75;3719083;79;43407;-19
2021/03/13 12:23:46;;;;;;;0.80;0.62;;;;;;;9.04;90.07;96306.37;3724775;79;26426;-19
2021/03/13 12:28:52;;;;;;;1.35;0.70;;;;;;;9.06;92.01;96304.31;3718216;78;43747;-19
2021/03/13 12:33:59;;;;;;;1.10;0.70;;;;;;;8.96;90.49;96278.37;3685152;79;73242;-19
2021/03/13 12:39:07;;;;;;;1.10;0.70;;;;;;;8.98;91.96;96285.18;3721044;79;44507;-18
2021/03/13 12:44:14;;;;;;;0.95;0.70;;;;;;;8.87;92.38;96277.73;3685288;79;43449;-18
2021/03/13 12:49:23;;;;;;;0.73;0.60;;;;;;;8.79;92.66;96288.13;3698600;79;73317;-18
2021/03/13 12:54:29;;;;;;;1.12;0.55;;;;;;;8.96;93.89;96304.69;3692959;79;44198;-18
2021/03/13 12:59:35;;;;;;;0.70;0.60;;;;;;;8.87;95.26;96281.25;3721062;79;43361;-18
2021/03/13 13:04:41;;;;;;;1.37;0.57;;;;;;;8.89;96.16;96283.19;3721169;79;43346;-18
2021/03/13 13:09:48;;;;;;;3.33;0.60;;;;;;;8.89;98.21;96265.73;3723866;79;43390;-18
2021/03/13 13:14:55;;;;;;;1.10;0.50;;;;;;;8.75;100.00;96309.72;3721121;79;73333;-22
2021/03/13 13:20:01;;;;;;;0.98;0.50;;;;;;;8.21;100.00;96347.00;3726239;79;44502;-18
2021/03/13 13:25:10;;;;;;;0.85;0.40;;;;;;;7.93;100.00;96347.88;3717099;79;43404;-18
2021/03/13 13:30:18;;;;;;;0.73;0.50;;;;;;;7.94;100.00;96400.98;3712187;79;44016;-18
2021/03/13 13:35:24;;;;;;;0.78;0.50;;;;;;;8.06;100.00;96325.67;3701601;79;73464;-18
2021/03/13 13:40:32;;;;;;;0.40;0.40;;;;;;;8.12;100.00;96334.78;3712211;78;44036;-18
2021/03/13 13:45:38;;;;;;;0.65;0.40;;;;;;;6.11;100.00;96379.11;3658230;79;43682;-19
2021/03/13 13:50:46;;;;;;;0.40;0.40;;;;;;;5.38;100.00;96412.45;3635187;80;43492;-19
2021/03/13 13:55:52;;;;;;;0.30;0.30;;;;;;;4.83;100.00;96399.61;3632013;81;43751;-20
2021/03/13 14:00:58;;;;;;;0.40;0.30;;;;;;;4.63;100.00;96367.20;3634671;81;44731;-20
2021/03/13 14:06:04;;;;;;;0.43;0.30;;;;;;;4.62;100.00;96410.39;3632196;81;44795;-20
2021/03/13 14:11:10;;;;;;;0.60;0.60;;;;;;;4.63;100.00;96428.05;3638778;80;44598;-20
2021/03/13 14:16:16;;;;;;;0.37;0.37;;;;;;;4.78;100.00;96437.97;3710477;79;73251;-20
2021/03/13 14:21:22;;;;;;;0.30;0.30;;;;;;;5.12;100.00;96407.95;3703261;79;44888;-20
2021/03/13 14:26:29;;;;;;;0.30;0.30;;;;;;;5.26;100.00;96409.86;3678774;79;43344;-20
2021/03/13 14:31:35;;;;;;;0.30;0.30;;;;;;;5.41;100.00;96403.24;3693304;79;43034;-20
2021/03/13 14:36:44;;;;;;;0.60;0.60;;;;;;;5.65;100.00;96391.52;3698867;78;43698;-20
2021/03/13 14:41:54;;;;;;;0.40;0.40;;;;;;;5.89;100.00;96412.34;3690540;78;43718;-20
2021/03/13 14:46:59;;;;;;;0.50;0.50;;;;;;;6.05;100.00;96384.69;3699449;79;44524;-20
2021/03/13 14:52:11;;;;;;;0.50;0.50;;;;;;;6.26;100.00;96432.06;3700643;79;73620;-20
2021/03/13 14:57:16;;;;;;;0.60;0.50;;;;;;;6.19;100.00;96414.26;3698077;79;43278;-19
2021/03/13 15:02:21;;;;;;;1.35;0.72;;;;;;;7.05;100.00;96407.06;3684219;79;73311;-20
2021/03/13 15:07:29;;;;;;;0.73;0.50;;;;;;;6.96;100.00;96403.66;3699607;78;44420;-19
2021/03/13 15:12:35;;;;;;;1.00;0.53;;;;;;;6.70;100.00;96398.30;3686086;78;43677;-19
2021/03/13 15:17:43;;;;;;;1.25;0.50;;;;;;;6.63;100.00;96390.19;3691550;79;44179;-19
2021/03/13 15:22:49;;;;;;;3.20;0.60;;;;;;;6.60;100.00;96409.28;3697032;79;44594;-19
2021/03/13 15:27:55;;;;;;;1.33;0.60;;;;;;;6.50;100.00;96387.86;3701133;79;44280;-19
2021/03/13 15:33:02;;;;;;;1.57;0.80;;;;;;;6.46;99.62;96392.23;3703055;78;43050;-18
2021/03/13 15:38:09;;;;;;;1.32;0.62;;;;;;;6.44;97.06;96404.95;3708575;78;43314;-19
2021/03/13 15:43:15;;;;;;;2.27;0.87;;;;;;;6.46;93.31;96387.41;3703047;78;44058;-19
2021/03/13 15:48:21;;;;;;;2.57;1.00;;;;;;;6.47;91.38;96395.23;3718184;78;44040;-19
2021/03/13 15:53:28;;;;;;;2.77;0.70;;;;;;;6.65;91.76;96396.68;3705204;78;43698;-19
2021/03/13 15:58:35;;;;;;;3.08;0.80;;;;;;;7.02;87.32;96401.55;3718660;78;43123;-19
2021/03/13 16:03:42;;;;;;;2.13;0.90;;;;;;;7.43;88.43;96389.93;3538755;81;44067;-19
2021/03/13 16:08:49;;;;;;;3.20;1.15;;;;;;;7.56;84.20;96389.53;3698890;78;43690;-19
2021/03/13 16:13:55;;;;;;;1.80;0.80;;;;;;;7.69;85.61;96359.35;3704447;78;43145;-19
2021/03/13 16:19:01;;;;;;;1.47;0.70;;;;;;;7.59;84.26;96380.27;3636948;79;43270;-18
2021/03/13 16:24:17;;;;;;;1.60;1.03;;;;;;;7.55;82.08;96374.47;3707477;78;43053;-17
2021/03/13 16:29:24;;;;;;;1.87;0.80;;;;;;;7.23;82.64;96365.95;3700940;80;44811;-17
2021/03/13 16:34:32;;;;;;;2.10;0.80;;;;;;;6.89;82.80;96409.42;3697132;78;43391;-18
2021/03/13 16:39:38;;;;;;;3.10;1.10;;;;;;;7.07;82.66;96379.07;3692563;78;43290;-18
2021/03/13 16:44:47;;;;;;;4.37;0.90;;;;;;;6.94;83.21;96405.69;3700855;78;42771;-18
2021/03/13 16:49:54;;;;;;;2.70;1.05;;;;;;;6.91;83.83;96408.73;3727241;78;43574;-17
2021/03/13 16:55:01;;;;;;;2.80;0.87;;;;;;;6.84;82.68;96391.78;3699659;78;42769;-19
2021/03/13 17:00:11;;;;;;;4.30;1.00;;;;;;;6.78;84.75;96402.20;3697691;78;43297;-19
2021/03/13 17:05:19;;;;;;;3.07;1.10;;;;;;;6.70;84.29;96415.70;3700464;78;44050;-18
2021/03/13 17:10:26;;;;;;;5.43;2.17;;;;;;;6.65;85.60;96419.95;3700235;78;44405;-18
2021/03/13 17:15:35;;;;;;;3.23;1.20;;;;;;;6.52;87.32;96399.21;3702155;78;26794;-18
2021/03/13 17:20:46;;;;;;;76.53;46.80;;;;;;;6.35;88.45;96416.77;3644640;78;42783;-18
2021/03/13 17:25:52;;;;;;;3.63;1.23;;;;;;;6.31;90.47;96441.72;3633168;80;43030;-18
2021/03/13 17:30:59;;;;;;;1.60;0.80;;;;;;;6.33;93.64;96473.61;3663165;79;44559;-18
2021/03/13 17:36:08;;;;;;;9.13;0.60;;;;;;;5.60;100.00;96495.41;3677223;80;43367;-19
2021/03/13 17:41:16;;;;;;;0.60;0.50;;;;;;;3.58;100.00;96539.91;3678661;78;26458;-20
2021/03/13 17:46:24;;;;;;;1.20;1.00;;;;;;;3.35;100.00;96541.35;3690559;78;27034;-20
2021/03/13 17:51:31;;;;;;;3.10;1.03;;;;;;;3.28;100.00;96550.98;3674220;78;43168;-19
2021/03/13 17:56:38;;;;;;;2.20;0.90;;;;;;;3.57;100.00;96544.42;3692288;78;43427;-19
2021/03/13 18:01:45;;;;;;;2.23;1.67;;;;;;;3.86;100.00;96548.44;3688882;78;26414;-19
2021/03/13 18:06:52;;;;;;;2.60;0.77;;;;;;;3.82;100.00;96537.28;3686519;79;44404;-19
2021/03/13 18:11:59;;;;;;;4.70;1.40;;;;;;;3.79;100.00;96522.14;3678016;79;43385;-19
2021/03/13 18:17:07;;;;;;;1.10;0.50;;;;;;;3.66;100.00;96512.81;3689152;78;42874;-19
2021/03/13 18:22:14;;;;;;;0.70;0.60;;;;;;;3.87;100.00;96503.49;3682850;78;26687;-19
2021/03/13 18:27:24;;;;;;;1.37;0.60;;;;;;;3.97;100.00;96502.81;3684659;78;43936;-19
2021/03/13 18:32:29;;;;;;;0.40;0.40;;;;;;;3.98;100.00;96509.00;3720714;77;43631;-19
2021/03/13 18:37:36;;;;;;;0.47;0.47;;;;;;;3.84;100.00;96537.11;3707798;79;43266;-19
2021/03/13 18:42:43;;;;;;;0.40;0.40;;;;;;;3.70;100.00;96539.42;3626526;79;42150;-19
2021/03/13 18:47:51;;;;;;;0.90;0.60;;;;;;;3.53;100.00;96523.11;3725911;79;26417;-19
2021/03/13 18:52:59;;;;;;;0.83;0.53;;;;;;;3.36;100.00;96515.08;3730592;77;26871;-18
2021/03/13 18:58:06;;;;;;;1.80;0.63;;;;;;;3.17;100.00;96524.67;3730366;79;43458;-19
2021/03/13 19:03:12;;;;;;;1.20;0.73;;;;;;;3.05;100.00;96549.42;3730140;77;43716;-19
2021/03/13 19:08:19;;;;;;;1.20;0.70;;;;;;;2.91;100.00;96535.73;3726160;79;44640;-19
2021/03/13 19:13:25;;;;;;;1.30;0.60;;;;;;;2.80;100.00;96552.45;3734481;77;43330;-19
2021/03/13 19:18:32;;;;;;;1.67;1.00;;;;;;;2.69;100.00;96557.56;3733138;79;41975;-19
2021/03/13 19:23:38;;;;;;;1.73;0.80;;;;;;;2.64;100.00;96573.14;3737351;79;43333;-19
2021/03/13 19:28:51;;;;;;;3.67;1.17;;;;;;;2.67;100.00;96576.83;3722044;77;27691;-19
2021/03/13 19:33:57;;;;;;;1.57;0.90;;;;;;;2.70;100.00;96590.62;3699298;78;43997;-19
2021/03/13 19:39:04;;;;;;;1.13;0.90;;;;;;;2.71;100.00;96578.16;3702665;79;44210;-18
2021/03/13 19:44:11;;;;;;;2.30;1.07;;;;;;;2.62;100.00;96571.98;3698375;78;43006;-19
2021/03/13 19:49:18;;;;;;;2.13;1.17;;;;;;;2.58;100.00;96572.80;3710142;78;44030;-18
2021/03/13 19:54:25;;;;;;;2.27;1.10;;;;;;;2.57;100.00;96567.62;3664840;79;44388;-18
2021/03/13 19:59:31;;;;;;;2.73;1.10;;;;;;;2.54;100.00;96546.66;3672826;79;43694;-18
2021/03/13 20:04:38;;;;;;;2.13;1.20;;;;;;;2.49;100.00;96548.97;3622329;80;44489;-19
2021/03/13 20:09:43;;;;;;;2.13;1.20;;;;;;;2.44;100.00;96552.92;3682296;79;43669;-18
2021/03/13 20:14:49;;;;;;;2.20;1.20;;;;;;;2.40;100.00;96564.88;3681802;78;43242;-19
2021/03/13 20:19:55;;;;;;;1.90;1.17;;;;;;;2.36;100.00;96567.48;3681462;79;44054;-19
2021/03/13 20:25:04;;;;;;;3.73;1.67;;;;;;;2.33;100.00;96566.47;3676847;78;44039;-19
2021/03/13 20:30:14;;;;;;;4.07;1.30;;;;;;;2.36;100.00;96566.16;3584497;81;44512;-19
2021/03/13 20:35:25;;;;;;;3.73;1.37;;;;;;;2.64;100.00;96571.34;3690000;78;44010;-19
2021/03/13 20:40:34;;;;;;;2.10;1.20;;;;;;;3.11;100.00;96567.91;3691481;79;44432;-19
2021/03/13 20:45:42;;;;;;;7.57;1.60;;;;;;;3.16;100.00;96574.89;3689162;79;43690;-19
2021/03/13 20:50:48;;;;;;;2.50;1.37;;;;;;;3.18;100.00;96571.06;3694649;78;44067;-19
2021/03/13 20:55:56;;;;;;;3.67;1.30;;;;;;;3.18;100.00;96566.26;3676643;79;44068;-19
2021/03/13 21:01:02;;;;;;;2.57;1.40;;;;;;;3.15;100.00;96566.09;3682567;78;43391;-19
2021/03/13 21:06:09;;;;;;;4.80;1.77;;;;;;;3.22;100.00;96576.93;3685592;78;44499;-19
2021/03/13 21:11:14;;;;;;;7.13;1.70;;;;;;;3.26;100.00;96592.89;3681695;79;44556;-19
2021/03/13 21:16:34;;;;;;;2.47;1.50;;;;;;;3.27;100.00;96601.21;3689920;80;44653;-19
2021/03/13 21:21:43;;;;;;;2.27;1.40;;;;;;;3.26;100.00;96598.21;3690858;78;44026;-19
2021/03/13 21:26:48;;;;;;;3.60;1.67;;;;;;;3.25;100.00;96604.53;3686908;79;44021;-20
2021/03/13 21:31:55;;;;;;;2.80;1.30;;;;;;;3.13;100.00;96606.66;3699854;78;44434;-19
2021/03/13 21:37:03;;;;;;;1.77;1.20;;;;;;;3.08;100.00;96607.13;3708434;78;43710;-19
2021/03/13 21:42:10;;;;;;;2.43;1.40;;;;;;;3.13;100.00;96608.46;3655309;79;43419;-19
2021/03/13 21:47:17;;;;;;;2.90;1.30;;;;;;;3.11;100.00;96626.44;3708570;79;43171;-19
2021/03/13 21:52:23;;;;;;;3.60;1.20;;;;;;;3.21;100.00;96629.81;3686763;79;43694;-19
2021/03/13 21:57:30;;;;;;;4.10;1.30;;;;;;;3.26;100.00;96628.81;3685425;78;44039;-19
2021/03/13 22:02:36;;;;;;;3.23;1.43;;;;;;;3.26;100.00;96630.66;3719565;78;43395;-20
2021/03/13 22:07:43;;;;;;;4.03;1.17;;;;;;;3.23;100.00;96632.64;3705573;79;43777;-20
2021/03/13 22:12:49;;;;;;;3.13;1.40;;;;;;;3.24;100.00;96634.78;3713784;78;44093;-20
2021/03/13 22:17:55;;;;;;;4.83;1.43;;;;;;;3.21;100.00;96631.14;3706149;79;43145;-20
2021/03/13 22:23:01;;;;;;;3.77;1.20;;;;;;;3.28;100.00;96632.16;3707859;79;44072;-20
2021/03/13 22:28:08;;;;;;;3.80;1.27;;;;;;;3.37;100.00;96625.87;3707531;79;44035;-23
2021/03/13 22:33:14;;;;;;;5.30;1.90;;;;;;;3.47;100.00;96623.59;3700008;78;43762;-19
2021/03/13 22:38:20;;;;;;;3.70;1.50;;;;;;;3.59;100.00;96627.60;3696527;78;44461;-20
2021/03/13 22:43:28;;;;;;;2.73;1.30;;;;;;;3.63;100.00;96628.95;3698194;78;44220;-21
2021/03/13 22:48:34;;;;;;;2.63;1.43;;;;;;;3.62;100.00;96629.12;3690118;79;44197;-19
2021/03/13 22:53:40;;;;;;;3.80;1.27;;;;;;;3.68;100.00;96625.80;3698519;78;44089;-19
2021/03/13 22:58:46;;;;;;;5.03;1.50;;;;;;;3.68;100.00;96629.80;3685079;78;44031;-20
2021/03/13 23:03:52;;;;;;;4.73;1.67;;;;;;;3.69;100.00;96630.14;3686369;78;44528;-19
2021/03/13 23:08:58;;;;;;;3.10;1.40;;;;;;;3.73;100.00;96619.99;3694485;78;43705;-19
2021/03/13 23:14:04;;;;;;;3.47;1.83;;;;;;;3.78;100.00;96618.50;3695058;78;44072;-19
2021/03/13 23:19:10;;;;;;;2.40;1.50;;;;;;;3.77;100.00;96613.35;3693860;78;44218;-19
2021/03/13 23:24:19;;;;;;;3.13;1.43;;;;;;;3.75;100.00;96588.23;3690209;78;42939;-20
2021/03/13 23:29:24;;;;;;;3.63;1.70;;;;;;;3.70;100.00;96592.68;3691100;79;43457;-19
2021/03/13 23:34:29;;;;;;;3.87;2.00;;;;;;;3.74;100.00;96591.03;3693426;78;42817;-19
2021/03/13 23:39:35;;;;;;;5.30;1.60;;;;;;;3.67;100.00;96594.84;3686052;78;44561;-19
2021/03/13 23:44:41;;;;;;;3.70;1.70;;;;;;;3.63;100.00;96604.17;3682342;78;44222;-19
2021/03/13 23:49:47;;;;;;;3.80;2.63;;;;;;;3.66;100.00;96598.50;3691245;78;44042;-19
2021/03/13 23:54:53;;;;;;;7.90;2.10;;;;;;;3.70;100.00;96603.33;3691971;78;43289;-19
2021/03/13 23:59:59;;;;;;;6.03;1.80;;;;;;;3.69;100.00;96626.14;3690154;79;42988;-19
